Time;durP1;ratioP1;P1;durP2;ratioP2;P2;SDS_P1;SDS_P2;PMS_P1;PMS_P2;Temp;Humidity;BMP_temperature;BMP_pressure;BME280_temperature;BME280_humidity;BME280_pressure;Samples;Min_cycle;Max_cycle;Signal;HPM_P1;HPM_P2
2021/06/22 00:00:12;;;;;;;;;;;18.10;99.90;;;;;;5091744;28;20467;-71
2021/06/22 00:02:37;;;;;;;;;;;18.10;99.90;;;;;;5091644;28;19908;-71
2021/06/22 00:05:04;;;;;;;;;;;18.10;99.90;;;;;;5091825;28;19914;-71
2021/06/22 00:07:30;;;;;;;;;;;18.10;99.90;;;;;;5090821;28;19963;-70
2021/06/22 00:09:55;;;;;;;;;;;18.10;99.90;;;;;;5091774;28;19943;-71
2021/06/22 00:12:21;;;;;;;;;;;18.10;99.90;;;;;;5086048;28;19916;-73
2021/06/22 00:14:46;;;;;;;;;;;18.10;99.90;;;;;;5091233;28;19912;-74
2021/06/22 00:17:12;;;;;;;;;;;18.00;99.90;;;;;;5091005;28;19934;-70
2021/06/22 00:19:38;;;;;;;;;;;18.00;99.90;;;;;;5091482;28;19935;-70
2021/06/22 00:22:04;;;;;;;;;;;18.00;99.90;;;;;;5090677;28;20474;-71
2021/06/22 00:24:30;;;;;;;;;;;17.90;99.90;;;;;;5091332;28;19930;-70
2021/06/22 00:26:55;;;;;;;;;;;17.90;99.90;;;;;;5090787;28;19916;-71
2021/06/22 00:29:23;;;;;;;;;;;17.80;99.90;;;;;;5091025;28;19930;-72
2021/06/22 00:31:48;;;;;;;;;;;17.70;99.90;;;;;;5090082;28;19908;-70
2021/06/22 00:34:14;;;;;;;;;;;17.70;99.90;;;;;;5091294;28;19912;-70
2021/06/22 00:36:39;;;;;;;;;;;17.70;99.90;;;;;;5091002;28;19908;-71
2021/06/22 00:39:05;;;;;;;;;;;17.60;99.90;;;;;;5089776;28;19916;-71
2021/06/22 00:41:31;;;;;;;;;;;17.60;99.90;;;;;;5091329;28;19911;-70
2021/06/22 00:44:06;;;;;;;;;;;17.50;99.90;;;;;;5085369;28;19920;-70
2021/06/22 00:46:32;;;;;;;;;;;17.50;99.90;;;;;;5090071;28;19912;-71
2021/06/22 00:48:57;;;;;;;;;;;17.40;99.90;;;;;;5090706;28;19908;-70
2021/06/22 00:51:23;;;;;;;;;;;17.40;99.90;;;;;;5091186;28;19908;-75
2021/06/22 00:53:48;;;;;;;;;;;17.30;99.90;;;;;;5091017;28;20014;-70
2021/06/22 00:56:14;;;;;;;;;;;17.30;99.90;;;;;;5090480;28;19923;-71
2021/06/22 00:58:41;;;;;;;;;;;17.20;99.90;;;;;;5090631;28;19908;-71
2021/06/22 01:01:06;;;;;;;;;;;17.20;99.90;;;;;;5091043;28;19908;-70
2021/06/22 01:03:32;;;;;;;;;;;17.20;99.90;;;;;;5091134;28;19915;-70
2021/06/22 01:05:57;;;;;;;;;;;17.30;99.90;;;;;;5090068;28;20369;-74
2021/06/22 01:08:23;;;;;;;;;;;17.20;99.90;;;;;;5090753;28;19980;-70
2021/06/22 01:10:49;;;;;;;;;;;17.30;99.90;;;;;;5091015;28;19908;-70
2021/06/22 01:13:14;;;;;;;;;;;17.20;99.90;;;;;;5084068;28;19918;-71
2021/06/22 01:15:40;;;;;;;;;;;17.20;99.90;;;;;;5081627;28;19915;-73
2021/06/22 01:18:05;;;;;;;;;;;17.20;99.90;;;;;;5087597;28;19958;-70
2021/06/22 01:20:32;;;;;;;;;;;17.20;99.90;;;;;;5090863;28;19991;-70
2021/06/22 01:22:58;;;;;;;;;;;17.20;99.90;;;;;;5090720;28;19944;-71
2021/06/22 01:25:24;;;;;;;;;;;17.20;99.90;;;;;;5090712;28;19970;-72
2021/06/22 01:27:49;;;;;;;;;;;17.20;99.90;;;;;;5089702;28;19963;-70
2021/06/22 01:30:15;;;;;;;;;;;17.20;99.90;;;;;;5090764;28;19908;-70
2021/06/22 01:32:41;;;;;;;;;;;17.20;99.90;;;;;;5092324;28;19908;-70
2021/06/22 01:35:07;;;;;;;;;;;17.20;99.90;;;;;;5094272;28;19908;-70
2021/06/22 01:37:33;;;;;;;;;;;17.20;99.90;;;;;;5093627;28;19909;-75
2021/06/22 01:40:03;;;;;;;;;;;17.20;99.90;;;;;;5094513;28;19912;-71
2021/06/22 01:42:28;;;;;;;;;;;17.20;99.90;;;;;;5088324;28;19956;-71
2021/06/22 01:44:54;;;;;;;;;;;17.20;99.90;;;;;;5093850;28;19959;-76
2021/06/22 01:47:20;;;;;;;;;;;17.10;99.90;;;;;;5093301;28;19966;-70
2021/06/22 01:49:45;;;;;;;;;;;17.10;99.90;;;;;;5094051;28;20377;-71
2021/06/22 01:52:14;;;;;;;;;;;17.10;99.90;;;;;;5093996;28;19916;-72
2021/06/22 01:54:39;;;;;;;;;;;17.00;99.90;;;;;;5094020;28;19915;-71
2021/06/22 01:57:05;;;;;;;;;;;17.00;99.90;;;;;;5092944;28;20289;-74
2021/06/22 01:59:30;;;;;;;;;;;17.00;99.90;;;;;;5093477;28;19916;-71
2021/06/22 02:01:56;;;;;;;;;;;17.00;99.90;;;;;;5093686;28;20365;-70
2021/06/22 02:04:22;;;;;;;;;;;17.00;99.90;;;;;;5093615;28;19915;-71
2021/06/22 02:06:48;;;;;;;;;;;17.10;99.90;;;;;;5092571;28;20369;-71
2021/06/22 02:09:13;;;;;;;;;;;17.00;99.90;;;;;;5093432;28;19961;-71
2021/06/22 02:11:38;;;;;;;;;;;17.00;99.90;;;;;;5093170;28;19908;-70
2021/06/22 02:14:05;;;;;;;;;;;16.90;99.90;;;;;;5088050;28;20170;-71
2021/06/22 02:16:31;;;;;;;;;;;17.00;99.90;;;;;;5112042;28;19908;-70
2021/06/22 02:18:57;;;;;;;;;;;17.00;99.90;;;;;;5113533;28;19911;-71
2021/06/22 02:21:23;;;;;;;;;;;17.00;99.90;;;;;;5113608;28;19916;-70
2021/06/22 02:23:48;;;;;;;;;;;17.00;99.90;;;;;;5113681;28;19908;-71
2021/06/22 02:26:14;;;;;;;;;;;17.10;99.90;;;;;;5112761;28;19980;-71
2021/06/22 02:28:39;;;;;;;;;;;17.10;99.90;;;;;;5111920;28;19955;-73
2021/06/22 02:31:05;;;;;;;;;;;17.10;99.90;;;;;;5113532;28;19912;-71
2021/06/22 02:33:30;;;;;;;;;;;17.20;99.90;;;;;;5113502;28;19996;-71
2021/06/22 02:35:56;;;;;;;;;;;17.20;99.90;;;;;;5112444;28;20389;-72
2021/06/22 02:38:21;;;;;;;;;;;17.20;99.90;;;;;;5113260;28;20364;-71
2021/06/22 02:40:47;;;;;;;;;;;17.20;99.90;;;;;;5113324;28;19915;-70
2021/06/22 02:43:14;;;;;;;;;;;17.20;99.90;;;;;;5093732;28;20293;-70
2021/06/22 02:45:40;;;;;;;;;;;17.10;99.90;;;;;;5091274;28;19923;-73
2021/06/22 02:48:08;;;;;;;;;;;17.20;99.90;;;;;;5092614;28;19912;-72
2021/06/22 02:50:34;;;;;;;;;;;17.20;99.90;;;;;;5092674;28;19995;-73
2021/06/22 02:53:00;;;;;;;;;;;17.20;99.90;;;;;;5092779;28;19952;-75
2021/06/22 02:55:25;;;;;;;;;;;17.20;99.90;;;;;;5092306;28;20404;-70
2021/06/22 02:57:52;;;;;;;;;;;17.20;99.90;;;;;;5091317;28;19919;-70
2021/06/22 03:00:19;;;;;;;;;;;17.20;99.90;;;;;;5092538;28;19995;-70
2021/06/22 03:02:44;;;;;;;;;;;17.20;99.90;;;;;;5092321;28;19944;-72
2021/06/22 03:05:10;;;;;;;;;;;17.20;99.90;;;;;;5092294;28;20012;-71
2021/06/22 03:07:36;;;;;;;;;;;17.20;99.90;;;;;;5091528;28;20236;-70
2021/06/22 03:10:04;;;;;;;;;;;17.30;99.90;;;;;;5092282;28;19908;-70
2021/06/22 03:12:29;;;;;;;;;;;17.30;99.90;;;;;;5086747;28;20365;-70
2021/06/22 03:14:55;;;;;;;;;;;17.30;99.90;;;;;;5091676;28;19908;-71
2021/06/22 03:17:20;;;;;;;;;;;17.40;99.90;;;;;;5089936;28;19961;-74
2021/06/22 03:19:46;;;;;;;;;;;17.30;99.90;;;;;;5092067;28;20315;-71
2021/06/22 03:22:11;;;;;;;;;;;17.40;99.90;;;;;;5090741;28;19977;-71
2021/06/22 03:24:37;;;;;;;;;;;17.40;99.90;;;;;;5091942;28;20003;-71
2021/06/22 03:27:02;;;;;;;;;;;17.30;99.90;;;;;;5091147;28;20320;-70
2021/06/22 03:29:28;;;;;;;;;;;17.30;99.90;;;;;;5091575;28;19908;-70
2021/06/22 03:31:53;;;;;;;;;;;17.30;99.90;;;;;;5091851;28;19943;-70
2021/06/22 03:34:19;;;;;;;;;;;17.30;99.90;;;;;;5091886;28;20337;-71
2021/06/22 03:36:45;;;;;;;;;;;17.30;99.90;;;;;;5090991;28;19912;-70
2021/06/22 03:39:10;;;;;;;;;;;17.30;99.90;;;;;;5091771;28;19908;-73
2021/06/22 03:41:36;;;;;;;;;;;17.30;99.90;;;;;;5092052;28;19916;-70
2021/06/22 03:44:02;;;;;;;;;;;17.40;99.90;;;;;;5085876;28;19916;-70
2021/06/22 03:46:28;;;;;;;;;;;17.40;99.90;;;;;;5090463;28;19913;-71
2021/06/22 03:48:54;;;;;;;;;;;17.40;99.90;;;;;;5091555;28;19908;-71
2021/06/22 03:51:19;;;;;;;;;;;17.40;99.90;;;;;;5091619;28;19978;-75
2021/06/22 03:53:45;;;;;;;;;;;17.40;99.90;;;;;;5091547;28;19912;-70
2021/06/22 03:56:11;;;;;;;;;;;17.40;99.90;;;;;;5090598;28;19908;-70
2021/06/22 03:58:36;;;;;;;;;;;17.40;99.90;;;;;;5091172;28;19908;-70
2021/06/22 04:01:03;;;;;;;;;;;17.40;99.90;;;;;;5091383;28;19954;-71
2021/06/22 04:03:29;;;;;;;;;;;17.40;99.90;;;;;;5091376;28;19916;-70
2021/06/22 04:05:54;;;;;;;;;;;17.40;99.90;;;;;;5090508;28;19973;-70
2021/06/22 04:08:20;;;;;;;;;;;17.50;99.90;;;;;;5091193;28;20006;-72
2021/06/22 04:10:45;;;;;;;;;;;17.50;99.90;;;;;;5091260;28;19912;-71
2021/06/22 04:13:11;;;;;;;;;;;17.50;99.90;;;;;;5085606;28;19908;-70
2021/06/22 04:15:36;;;;;;;;;;;17.50;99.90;;;;;;5090553;28;19909;-71
2021/06/22 04:18:06;;;;;;;;;;;17.50;99.90;;;;;;5090703;28;19918;-72
2021/06/22 04:20:31;;;;;;;;;;;17.60;99.90;;;;;;5089895;28;19908;-71
2021/06/22 04:22:57;;;;;;;;;;;17.50;99.90;;;;;;5091298;28;19957;-71
2021/06/22 04:25:23;;;;;;;;;;;17.50;99.90;;;;;;5090954;28;20003;-71
2021/06/22 04:27:48;;;;;;;;;;;17.50;99.90;;;;;;5090210;28;19919;-73
2021/06/22 04:30:14;;;;;;;;;;;17.50;99.90;;;;;;5090644;28;19963;-75
2021/06/22 04:32:39;;;;;;;;;;;17.50;99.90;;;;;;5091067;28;20011;-71
2021/06/22 04:35:05;;;;;;;;;;;17.60;99.90;;;;;;5091035;28;19908;-71
2021/06/22 04:37:31;;;;;;;;;;;17.60;99.90;;;;;;5090211;28;19908;-71
2021/06/22 04:39:56;;;;;;;;;;;17.60;99.90;;;;;;5090886;28;20266;-75
2021/06/22 04:42:22;;;;;;;;;;;17.70;99.90;;;;;;5085395;28;19912;-70
2021/06/22 04:44:47;;;;;;;;;;;17.70;99.90;;;;;;5090467;28;19931;-70
2021/06/22 04:47:13;;;;;;;;;;;17.80;99.90;;;;;;5090035;28;20288;-71
2021/06/22 04:49:38;;;;;;;;;;;17.80;99.90;;;;;;5090800;28;19909;-74
2021/06/22 04:52:04;;;;;;;;;;;17.80;99.90;;;;;;5090971;28;19951;-70
2021/06/22 04:54:29;;;;;;;;;;;17.80;99.90;;;;;;5090634;28;20380;-71
2021/06/22 04:56:55;;;;;;;;;;;17.80;99.90;;;;;;5089971;28;19931;-71
2021/06/22 04:59:20;;;;;;;;;;;17.80;99.90;;;;;;5090372;28;20056;-73
2021/06/22 05:01:46;;;;;;;;;;;17.80;99.90;;;;;;5090757;28;20004;-70
2021/06/22 05:04:12;;;;;;;;;;;17.80;99.90;;;;;;5085647;28;19913;-70
2021/06/22 05:06:39;;;;;;;;;;;17.70;99.90;;;;;;5089611;28;20024;-71
2021/06/22 05:09:04;;;;;;;;;;;17.70;99.90;;;;;;5094669;28;19908;-70
2021/06/22 05:11:30;;;;;;;;;;;17.80;99.90;;;;;;5094626;28;19996;-70
2021/06/22 05:13:56;;;;;;;;;;;17.80;99.90;;;;;;5094256;28;20277;-72
2021/06/22 05:16:22;;;;;;;;;;;17.80;99.90;;;;;;5093524;28;19977;-70
2021/06/22 05:18:48;;;;;;;;;;;17.80;99.90;;;;;;5094473;28;20369;-70
2021/06/22 05:21:14;;;;;;;;;;;17.80;99.90;;;;;;5094698;28;20268;-71
2021/06/22 05:23:40;;;;;;;;;;;17.90;99.90;;;;;;5094303;28;19961;-74
2021/06/22 05:26:05;;;;;;;;;;;17.90;99.90;;;;;;5093682;28;19920;-73
2021/06/22 05:28:31;;;;;;;;;;;18.00;99.90;;;;;;5093903;28;19951;-70
2021/06/22 05:30:56;;;;;;;;;;;18.00;99.90;;;;;;5094888;28;19912;-70
2021/06/22 05:33:22;;;;;;;;;;;18.00;99.90;;;;;;5094362;28;19915;-73
2021/06/22 05:35:48;;;;;;;;;;;18.00;99.90;;;;;;5089735;28;19908;-73
2021/06/22 05:38:13;;;;;;;;;;;18.00;99.90;;;;;;5093606;28;19952;-71
2021/06/22 05:40:39;;;;;;;;;;;18.10;99.90;;;;;;5094141;28;19993;-70
2021/06/22 05:43:04;;;;;;;;;;;18.10;99.90;;;;;;5092525;28;20018;-71
2021/06/22 05:45:30;;;;;;;;;;;18.20;99.90;;;;;;5093903;28;19908;-74
2021/06/22 05:47:56;;;;;;;;;;;18.20;99.90;;;;;;5093447;28;19912;-74
2021/06/22 05:50:22;;;;;;;;;;;18.10;99.90;;;;;;5094089;28;19915;-70
2021/06/22 05:52:49;;;;;;;;;;;18.00;99.90;;;;;;5093808;28;20006;-70
2021/06/22 05:55:18;;;;;;;;;;;17.90;99.90;;;;;;5093941;28;20399;-70
2021/06/22 05:57:47;;;;;;;;;;;17.80;99.90;;;;;;5093123;28;19908;-70
2021/06/22 06:00:13;;;;;;;;;;;17.80;99.90;;;;;;5093696;28;19926;-71
2021/06/22 06:02:39;;;;;;;;;;;17.80;99.90;;;;;;5093731;28;19915;-70
2021/06/22 06:05:04;;;;;;;;;;;17.80;99.90;;;;;;5089995;28;19912;-75
2021/06/22 06:07:30;;;;;;;;;;;17.80;99.90;;;;;;5092561;28;19920;-70
2021/06/22 06:09:56;;;;;;;;;;;17.80;99.90;;;;;;5093630;28;20376;-70
2021/06/22 06:12:21;;;;;;;;;;;17.90;99.90;;;;;;5093235;28;19915;-70
2021/06/22 06:14:47;;;;;;;;;;;17.90;99.90;;;;;;5093222;28;19965;-71
2021/06/22 06:17:12;;;;;;;;;;;18.00;99.90;;;;;;5092483;28;20280;-70
2021/06/22 06:19:39;;;;;;;;;;;18.10;99.90;;;;;;5092237;28;19947;-70
2021/06/22 06:22:05;;;;;;;;;;;18.20;99.90;;;;;;5093314;28;19912;-72
2021/06/22 06:24:30;;;;;;;;;;;18.30;99.90;;;;;;5092005;28;19908;-70
2021/06/22 06:27:02;;;;;;;;;;;18.40;99.90;;;;;;5092461;28;19920;-70
2021/06/22 06:31:56;;;;;;;;;;;18.60;99.90;;;;;;5093438;28;19908;-70
2021/06/22 06:34:22;;;;;;;;;;;18.80;99.90;;;;;;5093060;28;19908;-70
2021/06/22 06:36:47;;;;;;;;;;;18.90;99.90;;;;;;5092109;28;19965;-70
2021/06/22 06:39:13;;;;;;;;;;;19.10;99.90;;;;;;5092884;28;19908;-74
2021/06/22 06:41:39;;;;;;;;;;;19.40;99.90;;;;;;5092927;28;19999;-70
2021/06/22 06:44:04;;;;;;;;;;;19.60;99.90;;;;;;5092703;28;19965;-70
2021/06/22 06:46:30;;;;;;;;;;;19.80;99.90;;;;;;5092074;28;19912;-70
2021/06/22 06:48:55;;;;;;;;;;;20.00;99.90;;;;;;5092825;28;20380;-73
2021/06/22 06:51:21;;;;;;;;;;;20.30;99.90;;;;;;5092647;28;19955;-70
2021/06/22 06:53:46;;;;;;;;;;;20.40;99.90;;;;;;5092749;28;20365;-70
2021/06/22 06:56:12;;;;;;;;;;;20.80;99.90;;;;;;5088378;28;19912;-71
2021/06/22 06:58:37;;;;;;;;;;;21.40;99.90;;;;;;5075052;28;20384;-74
2021/06/22 07:01:03;;;;;;;;;;;22.10;99.90;;;;;;5098810;28;19908;-70
2021/06/22 07:03:28;;;;;;;;;;;22.30;99.90;;;;;;5109760;28;19908;-70
2021/06/22 07:05:54;;;;;;;;;;;22.50;99.90;;;;;;5089812;28;19947;-72
2021/06/22 07:08:19;;;;;;;;;;;22.50;99.90;;;;;;5092091;28;19915;-70
2021/06/22 07:10:45;;;;;;;;;;;22.30;99.90;;;;;;5092236;28;19919;-70
2021/06/22 07:13:17;;;;;;;;;;;22.10;99.90;;;;;;5092256;28;20327;-71
2021/06/22 07:15:43;;;;;;;;;;;22.20;99.90;;;;;;5091170;28;19912;-70
2021/06/22 07:18:08;;;;;;;;;;;22.30;99.90;;;;;;5091981;28;19912;-71
2021/06/22 07:20:34;;;;;;;;;;;22.00;99.90;;;;;;5092410;28;19908;-73
2021/06/22 07:23:00;;;;;;;;;;;22.00;99.90;;;;;;5081367;28;19908;-70
2021/06/22 07:25:26;;;;;;;;;;;21.90;99.90;;;;;;5077600;28;20304;-70
2021/06/22 07:27:55;;;;;;;;;;;21.80;99.90;;;;;;5092198;28;20451;-75
2021/06/22 07:30:23;;;;;;;;;;;21.60;99.90;;;;;;5087900;28;19908;-74
2021/06/22 07:32:53;;;;;;;;;;;21.60;99.90;;;;;;5079405;28;19909;-70
2021/06/22 07:35:18;;;;;;;;;;;21.50;99.90;;;;;;5080545;28;19994;-74
2021/06/22 07:37:44;;;;;;;;;;;21.70;99.90;;;;;;5092110;28;19947;-70
2021/06/22 07:40:10;;;;;;;;;;;21.80;99.90;;;;;;5087712;28;19912;-71
2021/06/22 07:42:36;;;;;;;;;;;22.00;99.90;;;;;;5074864;28;19916;-70
2021/06/22 07:45:03;;;;;;;;;;;22.40;99.90;;;;;;5084177;28;19915;-72
2021/06/22 07:47:28;;;;;;;;;;;22.60;99.90;;;;;;5089259;28;19919;-70
2021/06/22 07:49:53;;;;;;;;;;;22.60;99.90;;;;;;5091225;28;19998;-70
2021/06/22 07:52:19;;;;;;;;;;;22.50;99.90;;;;;;5087773;28;19962;-71
2021/06/22 07:54:47;;;;;;;;;;;22.30;99.90;;;;;;5086599;28;19958;-70
2021/06/22 07:57:12;;;;;;;;;;;22.20;99.90;;;;;;5087885;28;19908;-70
2021/06/22 07:59:37;;;;;;;;;;;22.10;99.90;;;;;;5087387;28;19908;-75
2021/06/22 08:02:03;;;;;;;;;;;21.80;99.90;;;;;;5075977;28;19999;-74
2021/06/22 08:04:29;;;;;;;;;;;21.50;99.90;;;;;;5079893;28;20304;-70
2021/06/22 08:06:54;;;;;;;;;;;21.10;99.90;;;;;;5077398;28;19916;-71
2021/06/22 08:09:20;;;;;;;;;;;20.90;99.90;;;;;;5083693;28;19977;-71
2021/06/22 08:11:46;;;;;;;;;;;20.90;99.90;;;;;;5084147;28;19913;-71
2021/06/22 08:14:11;;;;;;;;;;;20.70;99.90;;;;;;5080800;28;19916;-70
2021/06/22 08:16:37;;;;;;;;;;;20.70;99.90;;;;;;5084400;28;19908;-70
2021/06/22 08:19:02;;;;;;;;;;;20.70;99.90;;;;;;5083422;28;20370;-71
2021/06/22 08:21:28;;;;;;;;;;;20.70;99.90;;;;;;5083289;28;19912;-70
2021/06/22 08:23:53;;;;;;;;;;;20.80;99.90;;;;;;5093431;28;19912;-73
2021/06/22 08:26:19;;;;;;;;;;;20.90;99.90;;;;;;5070208;28;20293;-70
2021/06/22 08:28:45;;;;;;;;;;;20.80;99.90;;;;;;5086571;28;19921;-71
2021/06/22 08:31:10;;;;;;;;;;;20.80;99.90;;;;;;5089024;28;19930;-72
2021/06/22 08:33:36;;;;;;;;;;;20.70;99.90;;;;;;5087215;28;19915;-71
2021/06/22 08:36:03;;;;;;;;;;;20.70;99.90;;;;;;5079389;28;19912;-74
2021/06/22 08:38:29;;;;;;;;;;;20.70;99.90;;;;;;5089018;28;19943;-70
2021/06/22 08:40:55;;;;;;;;;;;20.70;99.90;;;;;;5083468;28;20377;-72
2021/06/22 08:43:21;;;;;;;;;;;20.80;99.90;;;;;;5102426;28;20078;-70
2021/06/22 08:45:46;;;;;;;;;;;20.90;99.90;;;;;;5082742;28;19908;-71
2021/06/22 08:48:12;;;;;;;;;;;21.00;99.90;;;;;;5091310;28;20025;-72
2021/06/22 08:50:45;;;;;;;;;;;21.00;99.90;;;;;;5102005;28;20357;-70
2021/06/22 08:53:12;;;;;;;;;;;21.00;99.90;;;;;;5087637;28;19908;-72
2021/06/22 08:55:38;;;;;;;;;;;21.00;99.90;;;;;;5091127;28;20331;-70
2021/06/22 08:58:09;;;;;;;;;;;20.90;99.90;;;;;;5085784;28;19909;-70
2021/06/22 09:00:36;;;;;;;;;;;21.00;99.90;;;;;;5090270;28;20642;-74
2021/06/22 09:03:15;;;;;;;;;;;21.20;99.90;;;;;;5093983;28;19911;-70
2021/06/22 09:05:43;;;;;;;;;;;21.40;99.90;;;;;;5075061;28;20316;-73
2021/06/22 09:08:19;;;;;;;;;;;21.50;99.90;;;;;;5093010;28;19959;-71
2021/06/22 09:10:45;;;;;;;;;;;21.60;99.90;;;;;;5088732;28;19958;-70
2021/06/22 09:13:15;;;;;;;;;;;21.60;99.90;;;;;;5084460;28;19912;-71
2021/06/22 09:15:41;;;;;;;;;;;21.60;99.90;;;;;;5081792;28;19935;-73
2021/06/22 09:18:26;;;;;;;;;;;21.60;99.90;;;;;;5097029;28;19998;-71
2021/06/22 09:20:52;;;;;;;;;;;21.60;99.90;;;;;;5089208;28;19908;-73
2021/06/22 09:23:19;;;;;;;;;;;21.60;99.90;;;;;;5091565;28;19909;-71
2021/06/22 09:25:45;;;;;;;;;;;21.60;99.90;;;;;;5092947;28;19915;-70
2021/06/22 09:28:11;;;;;;;;;;;21.60;99.90;;;;;;5089182;28;19912;-73
2021/06/22 09:30:37;;;;;;;;;;;21.50;99.90;;;;;;5085215;28;19908;-75
2021/06/22 09:33:22;;;;;;;;;;;21.50;99.90;;;;;;5091052;28;19972;-70
2021/06/22 09:35:49;;;;;;;;;;;21.50;99.90;;;;;;5082540;28;19908;-71
2021/06/22 09:38:15;;;;;;;;;;;21.40;99.90;;;;;;5100289;28;19955;-70
2021/06/22 09:40:41;;;;;;;;;;;21.20;99.90;;;;;;5092300;28;19908;-70
2021/06/22 09:43:07;;;;;;;;;;;21.10;99.90;;;;;;5092883;28;19981;-70
2021/06/22 09:45:33;;;;;;;;;;;21.00;99.90;;;;;;5091292;28;19953;-71
2021/06/22 09:48:00;;;;;;;;;;;20.80;99.90;;;;;;5086210;28;19916;-70
2021/06/22 09:50:45;;;;;;;;;;;20.70;99.90;;;;;;5085769;28;20435;-70
2021/06/22 09:53:30;;;;;;;;;;;20.60;99.90;;;;;;5072977;28;19909;-71
2021/06/22 09:55:56;;;;;;;;;;;20.60;99.90;;;;;;5082862;28;19916;-70
2021/06/22 09:58:40;;;;;;;;;;;20.50;99.90;;;;;;5086155;28;19908;-73
2021/06/22 10:01:22;;;;;;;;;;;20.60;99.90;;;;;;5087286;28;19913;-73
2021/06/22 10:03:48;;;;;;;;;;;20.70;99.90;;;;;;5080972;28;19915;-71
2021/06/22 10:06:14;;;;;;;;;;;20.80;99.90;;;;;;5083176;28;19912;-70
2021/06/22 10:08:58;;;;;;;;;;;20.90;99.90;;;;;;5087059;28;20097;-71
2021/06/22 10:11:36;;;;;;;;;;;21.20;99.90;;;;;;5092127;28;19909;-73
2021/06/22 10:14:03;;;;;;;;;;;21.40;99.90;;;;;;5073765;28;20099;-70
2021/06/22 10:16:31;;;;;;;;;;;21.50;99.90;;;;;;5083741;28;19965;-70
2021/06/22 10:18:57;;;;;;;;;;;21.50;99.90;;;;;;5086984;28;20391;-71
2021/06/22 10:21:22;;;;;;;;;;;21.60;99.90;;;;;;5085839;28;20047;-71
2021/06/22 10:23:49;;;;;;;;;;;21.70;99.90;;;;;;5088609;28;19934;-74
2021/06/22 10:26:15;;;;;;;;;;;21.70;99.90;;;;;;5086475;28;19923;-72
2021/06/22 10:28:43;;;;;;;;;;;21.90;99.90;;;;;;5088747;28;19912;-71
2021/06/22 10:31:09;;;;;;;;;;;22.00;99.90;;;;;;5085006;28;19908;-71
2021/06/22 10:33:34;;;;;;;;;;;22.10;99.90;;;;;;5087247;28;20708;-70
2021/06/22 10:35:59;;;;;;;;;;;22.00;99.90;;;;;;5083180;28;20570;-70
2021/06/22 10:38:26;;;;;;;;;;;22.00;99.90;;;;;;5090912;28;19958;-71
2021/06/22 10:40:55;;;;;;;;;;;21.90;99.90;;;;;;5088137;28;19931;-70
2021/06/22 10:43:33;;;;;;;;;;;21.70;99.90;;;;;;5087139;28;20026;-72
2021/06/22 10:46:03;;;;;;;;;;;21.40;99.90;;;;;;5070943;28;19912;-70
2021/06/22 10:48:39;;;;;;;;;;;21.30;99.90;;;;;;5079549;28;19912;-74
2021/06/22 10:51:24;;;;;;;;;;;21.00;99.90;;;;;;5105946;28;19954;-72
2021/06/22 10:53:49;;;;;;;;;;;20.80;99.90;;;;;;5071648;28;19913;-71
2021/06/22 10:56:16;;;;;;;;;;;20.60;99.90;;;;;;5088220;28;20359;-70
2021/06/22 10:58:41;;;;;;;;;;;20.50;99.90;;;;;;5090232;28;19908;-71
2021/06/22 11:01:08;;;;;;;;;;;20.30;99.90;;;;;;5084575;28;20274;-73
2021/06/22 11:03:34;;;;;;;;;;;20.20;99.90;;;;;;5082790;28;19915;-70
2021/06/22 11:06:18;;;;;;;;;;;20.20;99.90;;;;;;5080743;28;19908;-71
2021/06/22 11:08:44;;;;;;;;;;;20.20;99.90;;;;;;5087276;28;19908;-71
2021/06/22 11:11:09;;;;;;;;;;;20.00;99.90;;;;;;5090218;28;20280;-74
2021/06/22 11:13:40;;;;;;;;;;;19.90;99.90;;;;;;5090729;28;19927;-70
2021/06/22 11:16:26;;;;;;;;;;;19.90;99.90;;;;;;5086950;28;19912;-73
2021/06/22 11:18:51;;;;;;;;;;;19.90;99.90;;;;;;5089465;28;19916;-70
2021/06/22 11:21:27;;;;;;;;;;;19.90;99.90;;;;;;5085134;28;19965;-70
2021/06/22 11:23:55;;;;;;;;;;;19.70;99.90;;;;;;5090212;28;20285;-70
2021/06/22 11:26:21;;;;;;;;;;;19.40;99.90;;;;;;5081903;28;20365;-70
2021/06/22 11:28:56;;;;;;;;;;;19.30;99.90;;;;;;5079027;28;19962;-70
2021/06/22 11:31:31;;;;;;;;;;;19.30;99.90;;;;;;5079261;28;19936;-73
2021/06/22 11:34:07;;;;;;;;;;;19.30;99.90;;;;;;5084554;28;19916;-71
2021/06/22 11:36:33;;;;;;;;;;;19.30;99.90;;;;;;5085094;28;19915;-73
2021/06/22 11:39:05;;;;;;;;;;;19.20;99.90;;;;;;5086026;28;19912;-70
2021/06/22 11:41:31;;;;;;;;;;;19.10;99.90;;;;;;5083169;28;19935;-70
2021/06/22 11:44:06;;;;;;;;;;;19.10;99.90;;;;;;5082014;28;20272;-70
2021/06/22 11:46:32;;;;;;;;;;;19.10;99.90;;;;;;5087468;28;21089;-70
2021/06/22 11:48:58;;;;;;;;;;;19.10;99.90;;;;;;5087168;28;20305;-70
2021/06/22 11:51:42;;;;;;;;;;;19.00;99.90;;;;;;5107274;28;19952;-70
2021/06/22 11:54:08;;;;;;;;;;;19.00;99.90;;;;;;5080521;28;19908;-70
2021/06/22 11:56:35;;;;;;;;;;;19.00;99.90;;;;;;5083907;28;19908;-73
2021/06/22 11:59:00;;;;;;;;;;;19.00;99.90;;;;;;5068341;28;20027;-76
2021/06/22 12:01:26;;;;;;;;;;;18.90;99.90;;;;;;5083707;28;20019;-70
2021/06/22 12:03:55;;;;;;;;;;;18.90;99.90;;;;;;5076501;28;19977;-70
2021/06/22 12:06:21;;;;;;;;;;;18.90;99.90;;;;;;5079044;28;19912;-70
2021/06/22 12:08:47;;;;;;;;;;;18.90;99.90;;;;;;5100495;28;20428;-71
2021/06/22 12:11:26;;;;;;;;;;;18.80;99.90;;;;;;5087029;28;20002;-70
2021/06/22 12:13:53;;;;;;;;;;;18.70;99.90;;;;;;5090490;28;19946;-71
2021/06/22 12:16:28;;;;;;;;;;;18.60;99.90;;;;;;5079320;28;19961;-70
2021/06/22 12:18:55;;;;;;;;;;;18.60;99.90;;;;;;5080884;28;19914;-73
2021/06/22 12:21:21;;;;;;;;;;;18.60;99.90;;;;;;5083680;28;20025;-71
2021/06/22 12:23:47;;;;;;;;;;;18.60;99.90;;;;;;5101435;28;19950;-70
2021/06/22 12:26:13;;;;;;;;;;;18.50;99.90;;;;;;5084209;28;19916;-70
2021/06/22 12:28:38;;;;;;;;;;;18.30;99.90;;;;;;5084190;28;19951;-70
2021/06/22 12:31:05;;;;;;;;;;;18.20;99.90;;;;;;5084644;28;19974;-70
2021/06/22 12:33:38;;;;;;;;;;;18.10;99.90;;;;;;5084701;28;19908;-71
2021/06/22 12:36:07;;;;;;;;;;;17.90;99.90;;;;;;5078386;28;19908;-76
2021/06/22 12:38:33;;;;;;;;;;;17.80;99.90;;;;;;5098696;28;19911;-70
2021/06/22 12:41:00;;;;;;;;;;;17.80;99.90;;;;;;5091606;28;20357;-70
2021/06/22 12:43:45;;;;;;;;;;;17.90;99.90;;;;;;5089816;28;19943;-74
2021/06/22 12:46:14;;;;;;;;;;;18.10;99.90;;;;;;5082945;28;19908;-70
2021/06/22 12:48:40;;;;;;;;;;;18.40;99.90;;;;;;5081587;28;20392;-70
2021/06/22 12:51:07;;;;;;;;;;;18.70;99.90;;;;;;5089846;28;19943;-73
2021/06/22 12:53:33;;;;;;;;;;;18.90;99.90;;;;;;5080562;28;19909;-70
2021/06/22 12:56:05;;;;;;;;;;;18.90;99.90;;;;;;5087222;28;19923;-70
2021/06/22 12:58:43;;;;;;;;;;;18.90;99.90;;;;;;5084615;28;20260;-71
2021/06/22 13:01:24;;;;;;;;;;;18.90;99.90;;;;;;5086769;28;19916;-70
2021/06/22 13:03:49;;;;;;;;;;;18.90;99.90;;;;;;5101420;28;19908;-70
2021/06/22 13:06:23;;;;;;;;;;;19.10;99.90;;;;;;5079036;28;19922;-71
2021/06/22 13:08:51;;;;;;;;;;;19.10;99.90;;;;;;5087650;28;19958;-70
2021/06/22 13:11:22;;;;;;;;;;;19.00;99.90;;;;;;5083800;28;20392;-72
2021/06/22 13:13:49;;;;;;;;;;;19.00;99.90;;;;;;5087425;28;19995;-70
2021/06/22 13:16:14;;;;;;;;;;;19.20;99.90;;;;;;5093027;28;19907;-75
2021/06/22 13:18:59;;;;;;;;;;;19.40;99.90;;;;;;5099791;28;19923;-70
2021/06/22 13:21:54;;;;;;;;;;;19.70;99.90;;;;;;5088179;28;19908;-71
2021/06/22 13:24:28;;;;;;;;;;;20.20;99.90;;;;;;5087013;28;20257;-71
2021/06/22 13:26:55;;;;;;;;;;;20.70;99.90;;;;;;5087414;28;19919;-70
2021/06/22 13:29:20;;;;;;;;;;;21.00;99.90;;;;;;5090088;28;20273;-70
2021/06/22 13:31:52;;;;;;;;;;;21.40;99.90;;;;;;5107259;28;19942;-70
2021/06/22 13:34:24;;;;;;;;;;;21.80;99.90;;;;;;5094957;28;19913;-71
2021/06/22 13:36:49;;;;;;;;;;;22.70;99.90;;;;;;5091931;28;20003;-71
2021/06/22 13:39:16;;;;;;;;;;;23.30;99.90;;;;;;5088442;28;20053;-77
2021/06/22 13:41:47;;;;;;;;;;;23.40;99.90;;;;;;5084522;28;19915;-70
2021/06/22 13:44:13;;;;;;;;;;;23.60;99.90;;;;;;5091590;28;19955;-70
2021/06/22 13:46:39;;;;;;;;;;;23.80;99.90;;;;;;5089508;28;19943;-70
2021/06/22 13:49:05;;;;;;;;;;;23.90;99.90;;;;;;5085451;28;19920;-70
2021/06/22 13:51:31;;;;;;;;;;;24.00;99.90;;;;;;5082238;28;19909;-70
2021/06/22 13:54:03;;;;;;;;;;;24.20;99.90;;;;;;5091518;28;19969;-70
2021/06/22 13:56:29;;;;;;;;;;;24.40;99.90;;;;;;5092685;28;20365;-70
2021/06/22 13:58:55;;;;;;;;;;;24.80;99.90;;;;;;5088646;28;20085;-70
2021/06/22 14:01:20;;;;;;;;;;;24.90;99.90;;;;;;5084254;28;20300;-70
2021/06/22 14:03:46;;;;;;;;;;;25.10;99.90;;;;;;5086162;28;20373;-70
2021/06/22 14:06:11;;;;;;;;;;;25.20;99.90;;;;;;5078002;28;19999;-75
2021/06/22 14:08:38;;;;;;;;;;;25.30;99.90;;;;;;5086355;28;20044;-71
2021/06/22 14:11:04;;;;;;;;;;;25.40;99.90;;;;;;5083901;28;19912;-71
2021/06/22 14:13:30;;;;;;;;;;;25.50;99.90;;;;;;5091487;28;19915;-75
2021/06/22 14:15:56;;;;;;;;;;;25.70;99.90;;;;;;5075820;28;20262;-74
2021/06/22 14:18:22;;;;;;;;;;;26.10;99.90;;;;;;5091183;28;19912;-74